Syosyun — JD2406 — position and weather

sailwx.info

Track history (hours):
 
Tides and Currents Weather Stations Pressure Air Temp Water Temp Dewpoint Dewpoint Depression Visibility Wind Speed Wind Dir Waves Ship Positions

Syosyun

Last reported at 2015-Jan-31 12:33 UTC. Time now 2015-Jan-31 22:41 UTC.
Position N 35°29' E 139°52'.

Length 74 m; draft 4.6 m.

Type: Cargo ship. MMSI: 431000201.

Date/timePositionNaut miles runAvg speedWind from/ knotsBaromVisibWave heightAir tempDewpointWater temp
2015-Jan-31 12:33N 35°29' E 139°52'1110.5
2015-Jan-31 11:33N 35°20' E 139°45'9 9.3
2015-Jan-31 10:33N 35°11' E 139°47'10 9.5
2015-Jan-31 09:33N 35°03' E 139°41'1111.1
2015-Jan-31 08:31N 34°56' E 139°29'  
2015-Jan-27 11:13N 34°35' E 134°51'6 9.8
2015-Jan-27 10:33N 34°37' E 134°58'8 8.3
2015-Jan-27 09:33N 34°36' E 135°08'1110.7
2015-Jan-27 08:33N 34°39' E 135°21'6 1.8
2015-Jan-27 05:19N 34°39' E 135°28'0 0.0
2015-Jan-27 04:31N 34°39' E 135°28'0 0.0
2015-Jan-27 03:31N 34°39' E 135°28'0 0.0
2015-Jan-27 02:31N 34°39' E 135°28'0 0.0
2015-Jan-27 00:13N 34°39' E 135°28'0 0.0
2015-Jan-26 23:31N 34°39' E 135°28'0 0.0
2015-Jan-26 22:31N 34°39' E 135°28'0 0.0
2015-Jan-26 21:31N 34°39' E 135°28'0 0.0
2015-Jan-26 20:18N 34°39' E 135°28'0 0.0
2015-Jan-26 19:31N 34°39' E 135°28'0 0.0
2015-Jan-26 18:31N 34°39' E 135°28'0 0.0
2015-Jan-26 17:31N 34°39' E 135°28'0 0.0
2015-Jan-26 16:19N 34°39' E 135°28'0 0.0
2015-Jan-26 15:31N 34°39' E 135°28'0 0.0
2015-Jan-26 14:31N 34°39' E 135°28'0 0.0
2015-Jan-26 13:31N 34°39' E 135°28'0 0.0
2015-Jan-26 12:31N 34°39' E 135°28'0 0.0
2015-Jan-26 11:30N 34°39' E 135°28'0 0.0
2015-Jan-26 10:30N 34°39' E 135°28'0 0.0
2015-Jan-26 09:31N 34°39' E 135°28'0 0.0
2015-Jan-26 08:12N 34°39' E 135°28'0 0.0
2015-Jan-26 07:31N 34°39' E 135°28'0 0.0
2015-Jan-26 06:24N 34°39' E 135°28'0 0.0
2015-Jan-26 00:24N 34°39' E 135°28'0 0.0
2015-Jan-25 22:12N 34°39' E 135°28'0 0.0
2015-Jan-25 21:25N 34°39' E 135°28'0 0.0
2015-Jan-25 20:24N 34°39' E 135°28'0 0.0
2015-Jan-25 19:18N 34°39' E 135°28'0 0.0
2015-Jan-25 18:30N 34°39' E 135°28'0 0.0
2015-Jan-25 17:24N 34°39' E 135°28'0 0.0
2015-Jan-25 16:12N 34°39' E 135°28'0 0.0
2015-Jan-25 15:30N 34°39' E 135°28'0 0.0
2015-Jan-25 14:30N 34°39' E 135°28'0 0.0
2015-Jan-24 21:06N 34°39' E 135°28'0 0.0
2015-Jan-24 20:18N 34°39' E 135°28'0 0.0
2015-Jan-24 17:24N 34°39' E 135°28'0 0.0
2015-Jan-24 05:20N 34°39' E 135°28'7 8.9
2015-Jan-24 04:33N 34°36' E 135°20'1110.6
2015-Jan-24 03:33N 34°35' E 135°07'10 9.5
2015-Jan-24 02:32N 34°36' E 134°56'9 8.6
2015-Jan-24 01:32N 34°41' E 134°47'  
Track history (hours):
 
Tides and Currents Weather Stations Pressure Air Temp Water Temp Dewpoint Dewpoint Depression Visibility Wind Speed Wind Dir Waves Ship Positions

Syosyun

Last reported at 2015-Jan-31 12:33 UTC. Time now 2015-Jan-31 22:41 UTC.
Position N 35°29' E 139°52'.

Length 74 m; draft 4.6 m.

Type: Cargo ship. MMSI: 431000201.

Date/timePositionNaut miles runAvg speedWind from/ knotsBaromVisibWave heightAir tempDewpointWater temp
2015-Jan-31 12:33N 35°29' E 139°52'1110.5
2015-Jan-31 11:33N 35°20' E 139°45'9 9.3
2015-Jan-31 10:33N 35°11' E 139°47'10 9.5
2015-Jan-31 09:33N 35°03' E 139°41'1111.1
2015-Jan-31 08:31N 34°56' E 139°29'  
2015-Jan-27 11:13N 34°35' E 134°51'6 9.8
2015-Jan-27 10:33N 34°37' E 134°58'8 8.3
2015-Jan-27 09:33N 34°36' E 135°08'1110.7
2015-Jan-27 08:33N 34°39' E 135°21'6 1.8
2015-Jan-27 05:19N 34°39' E 135°28'0 0.0
2015-Jan-27 04:31N 34°39' E 135°28'0 0.0
2015-Jan-27 03:31N 34°39' E 135°28'0 0.0
2015-Jan-27 02:31N 34°39' E 135°28'0 0.0
2015-Jan-27 00:13N 34°39' E 135°28'0 0.0
2015-Jan-26 23:31N 34°39' E 135°28'0 0.0
2015-Jan-26 22:31N 34°39' E 135°28'0 0.0
2015-Jan-26 21:31N 34°39' E 135°28'0 0.0
2015-Jan-26 20:18N 34°39' E 135°28'0 0.0
2015-Jan-26 19:31N 34°39' E 135°28'0 0.0
2015-Jan-26 18:31N 34°39' E 135°28'0 0.0
2015-Jan-26 17:31N 34°39' E 135°28'0 0.0
2015-Jan-26 16:19N 34°39' E 135°28'0 0.0
2015-Jan-26 15:31N 34°39' E 135°28'0 0.0
2015-Jan-26 14:31N 34°39' E 135°28'0 0.0
2015-Jan-26 13:31N 34°39' E 135°28'0 0.0
2015-Jan-26 12:31N 34°39' E 135°28'0 0.0
2015-Jan-26 11:30N 34°39' E 135°28'0 0.0
2015-Jan-26 10:30N 34°39' E 135°28'0 0.0
2015-Jan-26 09:31N 34°39' E 135°28'0 0.0
2015-Jan-26 08:12N 34°39' E 135°28'0 0.0
2015-Jan-26 07:31N 34°39' E 135°28'0 0.0
2015-Jan-26 06:24N 34°39' E 135°28'0 0.0
2015-Jan-26 00:24N 34°39' E 135°28'0 0.0
2015-Jan-25 22:12N 34°39' E 135°28'0 0.0
2015-Jan-25 21:25N 34°39' E 135°28'0 0.0
2015-Jan-25 20:24N 34°39' E 135°28'0 0.0
2015-Jan-25 19:18N 34°39' E 135°28'0 0.0
2015-Jan-25 18:30N 34°39' E 135°28'0 0.0
2015-Jan-25 17:24N 34°39' E 135°28'0 0.0
2015-Jan-25 16:12N 34°39' E 135°28'0 0.0
2015-Jan-25 15:30N 34°39' E 135°28'0 0.0
2015-Jan-25 14:30N 34°39' E 135°28'0 0.0
2015-Jan-24 21:06N 34°39' E 135°28'0 0.0
2015-Jan-24 20:18N 34°39' E 135°28'0 0.0
2015-Jan-24 17:24N 34°39' E 135°28'0 0.0
2015-Jan-24 05:20N 34°39' E 135°28'7 8.9
2015-Jan-24 04:33N 34°36' E 135°20'1110.6
2015-Jan-24 03:33N 34°35' E 135°07'10 9.5
2015-Jan-24 02:32N 34°36' E 134°56'9 8.6
2015-Jan-24 01:32N 34°41' E 134°47'  

Dump ship's entire track history